Time;durP1;ratioP1;P1;durP2;ratioP2;P2;SDS_P1;SDS_P2;PMS_P1;PMS_P2;Temp;Humidity;BMP_temperature;BMP_pressure;BME280_temperature;BME280_humidity;BME280_pressure;Samples;Min_cycle;Max_cycle;Signal;HPM_P1;HPM_P2
2023/03/06 00:00:08;;;;;;;41.90;21.95;;;;;;;3.43;100.00;100182.97;5099169;28;20446;-76
2023/03/06 00:02:34;;;;;;;41.00;20.38;;;;;;;3.41;100.00;100182.38;5083913;27;20031;-76
2023/03/06 00:04:59;;;;;;;41.28;20.17;;;;;;;3.40;100.00;100185.38;5100679;27;20038;-76
2023/03/06 00:07:25;;;;;;;39.08;19.95;;;;;;;3.45;100.00;100188.19;5075822;28;20031;-76
2023/03/06 00:09:50;;;;;;;40.28;20.42;;;;;;;3.42;100.00;100191.44;5099067;28;20106;-76
2023/03/06 00:12:16;;;;;;;41.97;20.02;;;;;;;3.39;100.00;100190.03;5100579;28;20023;-76
2023/03/06 00:14:42;;;;;;;40.30;18.92;;;;;;;3.40;100.00;100185.38;5100349;28;20030;-76
2023/03/06 00:17:07;;;;;;;38.60;20.83;;;;;;;3.35;100.00;100180.66;5135969;28;20638;-76
2023/03/06 00:19:33;;;;;;;38.45;19.05;;;;;;;3.35;100.00;100183.41;5135081;28;20035;-76
2023/03/06 00:21:58;;;;;;;42.95;21.77;;;;;;;3.35;100.00;100197.13;5083984;28;20026;-76
2023/03/06 00:24:24;;;;;;;37.75;19.95;;;;;;;3.33;100.00;100180.91;5135391;28;20383;-76
2023/03/06 00:26:49;;;;;;;41.10;20.27;;;;;;;3.33;100.00;100178.16;5063554;28;20032;-76
2023/03/06 00:29:15;;;;;;;42.15;19.88;;;;;;;3.34;100.00;100177.09;5083311;28;20023;-76
2023/03/06 00:31:43;;;;;;;40.22;19.25;;;;;;;3.35;100.00;100172.44;5073259;28;20031;-76
2023/03/06 00:34:08;;;;;;;39.60;19.65;;;;;;;3.32;100.00;100176.50;5078080;28;20023;-76
2023/03/06 00:36:34;;;;;;;38.78;18.80;;;;;;;3.32;100.00;100173.75;5108226;28;20360;-76
2023/03/06 00:38:59;;;;;;;35.83;18.50;;;;;;;3.32;100.00;100164.69;5132388;28;20023;-77
2023/03/06 00:41:25;;;;;;;36.65;18.70;;;;;;;3.31;100.00;100163.84;5094249;27;20015;-77
2023/03/06 00:43:51;;;;;;;35.17;17.88;;;;;;;3.29;100.00;100163.28;5120039;28;20118;-77
2023/03/06 00:46:16;;;;;;;38.28;18.65;;;;;;;3.30;100.00;100155.88;5096680;28;20062;-76
2023/03/06 00:48:42;;;;;;;33.90;17.55;;;;;;;3.26;100.00;100152.81;5097854;28;20023;-76
2023/03/06 00:51:08;;;;;;;33.20;16.65;;;;;;;3.29;100.00;100151.50;5121422;28;20045;-76
2023/03/06 00:53:33;;;;;;;35.38;18.02;;;;;;;3.28;100.00;100147.88;5104509;28;20031;-76
2023/03/06 00:55:59;;;;;;;31.92;17.15;;;;;;;3.27;100.00;100145.41;5101115;28;20392;-77
2023/03/06 00:58:24;;;;;;;34.05;16.77;;;;;;;3.27;100.00;100142.66;5087464;27;20031;-76
2023/03/06 01:00:50;;;;;;;29.73;16.60;;;;;;;3.27;100.00;100135.25;5125084;27;20034;-77
2023/03/06 01:03:15;;;;;;;33.28;16.13;;;;;;;3.26;100.00;100141.00;5125207;27;20038;-77
2023/03/06 01:05:41;;;;;;;30.20;16.13;;;;;;;3.26;100.00;100138.25;5108345;27;20066;-77
2023/03/06 01:08:07;;;;;;;30.30;15.43;;;;;;;3.25;100.00;100134.69;5125152;27;20046;-76
2023/03/06 01:10:33;;;;;;;28.50;15.02;;;;;;;3.23;100.00;100130.53;5101568;28;20035;-76
2023/03/06 01:12:58;;;;;;;31.35;15.43;;;;;;;3.26;100.00;100141.84;5082025;28;20033;-76
2023/03/06 01:15:24;;;;;;;31.17;14.77;;;;;;;3.25;100.00;100133.84;5109989;27;20547;-77
2023/03/06 01:17:53;;;;;;;28.73;15.32;;;;;;;3.20;100.00;100137.34;5117958;27;20053;-76
2023/03/06 01:20:18;;;;;;;29.60;15.48;;;;;;;3.17;100.00;100129.63;5100173;28;20063;-76
2023/03/06 01:22:44;;;;;;;31.20;15.18;;;;;;;3.17;100.00;100126.88;5102176;27;20035;-76
2023/03/06 01:25:09;;;;;;;29.02;15.80;;;;;;;3.17;100.00;100120.56;5138823;27;20027;-76
2023/03/06 01:27:35;;;;;;;30.30;15.38;;;;;;;3.15;100.00;100120.84;5086426;27;20024;-76
2023/03/06 01:30:01;;;;;;;26.92;14.40;;;;;;;3.14;100.00;100122.72;5120474;27;20379;-76
2023/03/06 01:32:26;;;;;;;29.45;15.40;;;;;;;3.12;100.00;100118.59;5125172;27;20027;-76
2023/03/06 01:34:52;;;;;;;29.42;15.10;;;;;;;3.12;100.00;100124.06;5099966;28;20027;-76
2023/03/06 01:37:17;;;;;;;29.10;15.90;;;;;;;3.11;100.00;100112.28;5083299;27;20041;-76
2023/03/06 01:39:42;;;;;;;29.80;14.80;;;;;;;3.09;100.00;100113.59;5102970;27;20080;-76
2023/03/06 01:42:08;;;;;;;27.70;15.68;;;;;;;3.07;100.00;100104.81;5110933;27;20638;-76
2023/03/06 01:44:33;;;;;;;29.20;15.05;;;;;;;3.07;100.00;100105.66;5100091;28;20039;-76
2023/03/06 01:47:01;;;;;;;29.23;15.70;;;;;;;3.07;100.00;100097.41;5096048;28;20043;-76
2023/03/06 01:49:33;;;;;;;29.58;15.95;;;;;;;3.07;100.00;100088.38;5120614;27;20019;-77
2023/03/06 01:52:20;;;;;;;32.72;16.10;;;;;;;3.02;100.00;100097.34;5099434;28;20019;-76
2023/03/06 01:54:48;;;;;;;30.15;16.33;;;;;;;3.00;100.00;100094.03;5114102;27;20446;-76
2023/03/06 01:57:18;;;;;;;29.73;15.52;;;;;;;2.98;100.00;100087.13;5112302;28;20038;-76
2023/03/06 01:59:43;;;;;;;29.85;16.27;;;;;;;2.98;100.00;100089.88;5098082;27;20034;-76
2023/03/06 02:02:10;;;;;;;31.65;17.27;;;;;;;3.00;100.00;100087.72;5099527;28;20027;-76
2023/03/06 02:04:36;;;;;;;30.92;16.05;;;;;;;2.95;100.00;100076.66;5098037;27;20024;-76
2023/03/06 02:07:03;;;;;;;27.08;15.18;;;;;;;2.96;100.00;100081.09;5100577;27;20479;-76
2023/03/06 02:09:30;;;;;;;30.15;16.13;;;;;;;2.97;100.00;100075.31;5067311;27;20028;-76
2023/03/06 02:11:55;;;;;;;30.98;17.33;;;;;;;2.96;100.00;100075.59;5099281;28;20144;-76
2023/03/06 02:14:21;;;;;;;31.35;16.70;;;;;;;2.96;100.00;100070.13;5102208;27;20114;-76
2023/03/06 02:16:46;;;;;;;32.90;16.95;;;;;;;2.96;100.00;100070.13;5102631;27;20080;-76
2023/03/06 02:19:35;;;;;;;32.33;16.55;;;;;;;2.95;100.00;100060.19;5119552;27;20035;-76
2023/03/06 02:22:00;;;;;;;32.20;17.08;;;;;;;2.93;100.00;100060.47;5099758;28;20169;-76
2023/03/06 02:24:41;;;;;;;30.23;16.27;;;;;;;2.94;100.00;100064.03;5099049;28;20042;-76
2023/03/06 02:27:06;;;;;;;32.10;17.10;;;;;;;2.89;100.00;100059.31;5080211;27;20072;-76
2023/03/06 02:29:32;;;;;;;31.30;16.80;;;;;;;2.89;100.00;100064.78;5069186;27;20506;-76
2023/03/06 02:31:58;;;;;;;32.92;16.15;;;;;;;2.89;100.00;100056.56;5081688;28;20098;-76
2023/03/06 02:34:24;;;;;;;34.97;16.83;;;;;;;2.88;100.00;100058.47;5081125;28;20575;-77
2023/03/06 02:36:57;;;;;;;29.88;16.15;;;;;;;2.86;100.00;100060.66;5130288;27;20031;-76
2023/03/06 02:39:25;;;;;;;31.50;16.67;;;;;;;2.85;100.00;100059.00;5089086;28;20441;-76
2023/03/06 02:41:50;;;;;;;31.13;16.23;;;;;;;2.87;100.00;100069.69;5077008;27;21900;-76
2023/03/06 02:44:16;;;;;;;31.83;15.80;;;;;;;2.83;100.00;100060.34;5098769;28;20024;-76
2023/03/06 02:46:41;;;;;;;35.42;17.52;;;;;;;2.81;100.00;100055.09;5079193;27;20039;-76
2023/03/06 02:49:07;;;;;;;31.77;17.05;;;;;;;2.82;100.00;100051.28;5102152;27;20467;-76
2023/03/06 02:51:32;;;;;;;33.28;16.80;;;;;;;2.84;100.00;100051.00;5101697;27;20058;-76
2023/03/06 02:53:58;;;;;;;31.00;17.02;;;;;;;2.84;100.00;100051.00;5084631;27;20073;-76
2023/03/06 02:56:23;;;;;;;32.28;16.33;;;;;;;2.81;100.00;100046.84;5099262;27;20031;-76
2023/03/06 02:58:49;;;;;;;30.80;16.02;;;;;;;2.81;100.00;100051.53;5073187;27;20031;-76
2023/03/06 03:01:14;;;;;;;31.42;16.40;;;;;;;2.80;100.00;100052.63;5118356;27;20027;-76
2023/03/06 03:03:39;;;;;;;30.40;16.60;;;;;;;2.82;100.00;100047.72;5136989;27;20038;-76
2023/03/06 03:06:05;;;;;;;28.85;16.20;;;;;;;2.78;100.00;100047.38;5084643;27;20052;-75
2023/03/06 03:08:32;;;;;;;33.30;16.35;;;;;;;2.84;100.00;100057.34;5081664;27;20041;-75
2023/03/06 03:10:57;;;;;;;31.20;16.33;;;;;;;2.80;100.00;100055.34;5118302;27;20066;-75
2023/03/06 03:13:23;;;;;;;30.02;16.60;;;;;;;2.77;100.00;100048.47;5084738;27;20019;-75
2023/03/06 03:16:05;;;;;;;30.05;16.05;;;;;;;2.80;100.00;100050.69;5094863;27;20449;-75
2023/03/06 03:18:31;;;;;;;30.85;16.73;;;;;;;2.80;100.00;100045.22;5098181;28;20034;-75
2023/03/06 03:20:57;;;;;;;28.92;16.77;;;;;;;2.78;100.00;100044.63;5115861;27;20452;-75
2023/03/06 03:23:22;;;;;;;35.90;18.02;;;;;;;2.80;100.00;100034.25;5084546;27;20030;-75
2023/03/06 03:25:48;;;;;;;31.40;16.33;;;;;;;2.79;100.00;100035.34;5084744;27;20031;-75
2023/03/06 03:28:13;;;;;;;32.20;17.60;;;;;;;2.73;100.00;100028.13;5084263;27;20025;-75
2023/03/06 03:30:39;;;;;;;34.00;16.77;;;;;;;2.75;100.00;100020.47;5080773;28;20064;-75
2023/03/06 03:33:05;;;;;;;33.33;16.85;;;;;;;2.75;100.00;100023.19;5090194;27;20433;-75
2023/03/06 03:35:30;;;;;;;32.10;16.13;;;;;;;2.76;100.00;100026.75;5099611;27;20077;-75
2023/03/06 03:37:55;;;;;;;33.03;17.25;;;;;;;2.75;100.00;100019.63;5101316;27;20542;-75
2023/03/06 03:40:21;;;;;;;31.98;16.63;;;;;;;2.73;100.00;100019.91;5097515;27;20034;-75
2023/03/06 03:42:46;;;;;;;34.38;16.90;;;;;;;2.76;100.00;100027.63;5126457;27;20031;-75
2023/03/06 03:45:12;;;;;;;33.63;17.33;;;;;;;2.72;100.00;100020.16;5135846;27;20567;-75
2023/03/06 03:47:37;;;;;;;34.03;16.67;;;;;;;2.70;100.00;100014.91;5101058;27;20038;-75
2023/03/06 03:50:05;;;;;;;33.05;17.13;;;;;;;2.69;100.00;100010.50;5078188;27;20131;-75
2023/03/06 03:52:31;;;;;;;32.40;16.60;;;;;;;2.70;100.00;100012.16;5088478;27;20387;-75
2023/03/06 03:54:56;;;;;;;30.83;17.25;;;;;;;2.70;100.00;100009.41;5101216;27;20031;-75
2023/03/06 03:57:22;;;;;;;32.30;17.88;;;;;;;2.70;100.00;100014.91;5109118;28;20546;-75
2023/03/06 03:59:47;;;;;;;30.17;16.02;;;;;;;2.70;100.00;100017.66;5112934;27;20035;-75
2023/03/06 04:02:13;;;;;;;29.52;16.55;;;;;;;2.68;100.00;100017.09;5117798;27;20379;-75
2023/03/06 04:04:39;;;;;;;32.88;17.10;;;;;;;2.70;100.00;100020.38;5082429;27;20039;-75
2023/03/06 04:07:04;;;;;;;35.35;17.50;;;;;;;2.69;100.00;100016.00;5101034;28;20027;-75
2023/03/06 04:09:30;;;;;;;30.33;16.95;;;;;;;2.67;100.00;100013.53;5097678;28;20028;-75
2023/03/06 04:11:55;;;;;;;33.38;17.05;;;;;;;2.65;100.00;100015.69;5117438;28;20391;-75
2023/03/06 04:14:20;;;;;;;33.70;17.27;;;;;;;2.68;100.00;100003.38;5136222;28;20038;-75
2023/03/06 04:16:46;;;;;;;32.50;17.05;;;;;;;2.70;100.00;100009.41;5117441;28;20019;-75
2023/03/06 04:19:11;;;;;;;34.88;17.73;;;;;;;2.67;100.00;100013.53;5082697;28;20031;-75
2023/03/06 04:21:37;;;;;;;32.13;16.77;;;;;;;2.69;100.00;100005.03;5080584;28;20475;-75
2023/03/06 04:24:03;;;;;;;32.72;17.88;;;;;;;2.67;100.00;100009.94;5079111;28;20514;-75
2023/03/06 04:26:28;;;;;;;33.58;17.13;;;;;;;2.68;100.00;100004.22;5135961;28;20109;-75
2023/03/06 04:28:54;;;;;;;32.75;17.25;;;;;;;2.69;100.00;100008.59;5100307;28;20016;-75
2023/03/06 04:31:20;;;;;;;32.60;15.77;;;;;;;2.69;100.00;100000.38;5100535;27;20445;-75
2023/03/06 04:33:45;;;;;;;33.10;16.33;;;;;;;2.67;100.00;99997.06;5121232;27;20110;-75
2023/03/06 04:36:30;;;;;;;31.35;16.48;;;;;;;2.68;100.00;100001.47;5087801;27;20042;-75
2023/03/06 04:38:56;;;;;;;32.78;16.77;;;;;;;2.69;100.00;99988.56;5099365;27;20071;-75
2023/03/06 04:41:22;;;;;;;30.77;17.02;;;;;;;2.72;100.00;99987.25;5092696;27;20025;-75
2023/03/06 04:43:47;;;;;;;33.80;16.83;;;;;;;2.70;100.00;99992.97;5107859;27;20042;-75
2023/03/06 04:46:13;;;;;;;31.77;16.35;;;;;;;2.71;100.00;99993.81;5083648;28;20718;-75
2023/03/06 04:48:38;;;;;;;31.88;16.77;;;;;;;2.70;100.00;99984.75;5068006;28;20077;-75
2023/03/06 04:51:04;;;;;;;32.63;17.33;;;;;;;2.69;100.00;99983.09;5123478;27;20027;-75
2023/03/06 04:53:29;;;;;;;35.92;17.60;;;;;;;2.67;100.00;99990.75;5074609;28;20114;-75
2023/03/06 04:55:55;;;;;;;33.63;16.20;;;;;;;2.65;100.00;99980.03;5077502;28;20405;-75
2023/03/06 04:58:20;;;;;;;30.27;16.77;;;;;;;2.67;100.00;99994.34;5100087;28;20065;-75
2023/03/06 05:00:46;;;;;;;29.00;15.75;;;;;;;2.64;100.00;99980.28;5098207;27;20030;-75
2023/03/06 05:03:11;;;;;;;31.90;15.55;;;;;;;2.63;100.00;99989.59;5143926;27;20024;-75
2023/03/06 05:05:37;;;;;;;29.40;15.43;;;;;;;2.65;100.00;99985.53;5087877;28;20034;-75
2023/03/06 05:08:02;;;;;;;31.35;16.00;;;;;;;2.64;100.00;99980.28;5103069;27;20031;-75
2023/03/06 05:10:28;;;;;;;32.72;16.58;;;;;;;2.63;100.00;99981.38;5098107;28;20030;-75
2023/03/06 05:12:53;;;;;;;29.27;15.55;;;;;;;2.63;100.00;99975.91;5098042;28;20031;-75
2023/03/06 05:15:19;;;;;;;34.00;16.52;;;;;;;2.62;100.00;99974.25;5102181;28;20036;-75
2023/03/06 05:17:45;;;;;;;29.60;15.73;;;;;;;2.60;100.00;99979.97;5121962;27;20476;-75
2023/03/06 05:20:11;;;;;;;32.80;16.23;;;;;;;2.60;100.00;99987.38;5108013;27;20121;-75
2023/03/06 05:22:37;;;;;;;29.42;16.10;;;;;;;2.61;100.00;99981.63;5074252;27;20027;-75
2023/03/06 05:25:03;;;;;;;29.08;15.40;;;;;;;2.61;100.00;99980.78;5108186;27;20356;-75
2023/03/06 05:27:29;;;;;;;31.75;15.45;;;;;;;2.57;100.00;99985.16;5085099;28;20038;-75
2023/03/06 05:29:54;;;;;;;30.45;15.45;;;;;;;2.59;100.00;99982.94;5100066;28;20015;-75
2023/03/06 05:32:20;;;;;;;30.30;15.82;;;;;;;2.60;100.00;99979.16;5100190;27;20472;-75
2023/03/06 05:34:47;;;;;;;30.90;16.40;;;;;;;2.58;100.00;99976.66;5100184;28;20114;-75
2023/03/06 05:37:12;;;;;;;31.92;16.45;;;;;;;2.56;100.00;99972.50;5099575;27;20029;-75
2023/03/06 05:39:37;;;;;;;31.08;16.02;;;;;;;2.54;100.00;99974.69;5116887;27;20031;-75
2023/03/06 05:42:03;;;;;;;30.08;15.88;;;;;;;2.53;100.00;99984.78;5147054;27;20038;-75
2023/03/06 05:44:32;;;;;;;28.30;15.32;;;;;;;2.56;100.00;99969.75;5085332;27;20035;-75
2023/03/06 05:46:58;;;;;;;31.60;15.75;;;;;;;2.52;100.00;99971.38;5085993;27;20594;-75
2023/03/06 05:49:23;;;;;;;25.73;14.90;;;;;;;2.51;100.00;99966.94;5069860;27;20023;-75
2023/03/06 05:51:49;;;;;;;28.70;15.75;;;;;;;2.51;100.00;99961.47;5120229;27;20451;-75
2023/03/06 05:54:14;;;;;;;28.23;16.20;;;;;;;2.49;100.00;99956.25;5111538;27;20034;-75
2023/03/06 05:56:40;;;;;;;32.42;16.20;;;;;;;2.50;100.00;99955.16;5101023;27;20031;-75
2023/03/06 05:59:05;;;;;;;29.25;16.00;;;;;;;2.48;100.00;99943.63;5103360;27;20375;-75
2023/03/06 06:01:31;;;;;;;28.75;15.48;;;;;;;2.48;100.00;99932.69;5102883;27;20031;-75
2023/03/06 06:03:56;;;;;;;28.42;16.08;;;;;;;2.50;100.00;99929.66;5103328;27;20110;-75
2023/03/06 06:06:22;;;;;;;30.55;16.13;;;;;;;2.47;100.00;99931.00;5103028;27;20031;-75
2023/03/06 06:08:47;;;;;;;30.27;16.25;;;;;;;2.47;100.00;99942.78;5097832;28;20020;-75
2023/03/06 06:11:13;;;;;;;30.55;15.57;;;;;;;2.44;100.00;99950.69;5115457;27;20027;-75
2023/03/06 06:13:38;;;;;;;26.70;14.80;;;;;;;2.46;100.00;99951.28;5102824;27;20542;-75
2023/03/06 06:16:11;;;;;;;28.38;15.35;;;;;;;2.47;100.00;99952.94;5085687;27;20034;-75
2023/03/06 06:18:36;;;;;;;;;;;;;;;2.46;100.00;99957.59;5099906;28;20020;-75
2023/03/06 06:21:09;;;;;;;29.85;15.35;;;;;;;2.43;100.00;99958.09;5097051;28;19930;-75
2023/03/06 06:23:35;;;;;;;29.52;14.65;;;;;;;2.46;100.00;99952.09;5112010;27;20559;-75
2023/03/06 06:26:04;;;;;;;29.20;14.88;;;;;;;2.44;100.00;99954.25;5102941;27;20027;-75
2023/03/06 06:28:30;;;;;;;29.45;15.10;;;;;;;2.42;100.00;99956.44;5075560;28;20417;-75
2023/03/06 06:30:56;;;;;;;26.90;14.90;;;;;;;2.44;100.00;99946.03;5098622;28;20033;-75
2023/03/06 06:33:22;;;;;;;32.33;14.80;;;;;;;2.41;100.00;99946.56;5119755;27;20023;-75
2023/03/06 06:35:47;;;;;;;31.45;15.93;;;;;;;2.40;100.00;99958.59;5119633;27;20027;-75
2023/03/06 06:38:13;;;;;;;26.63;13.70;;;;;;;2.42;100.00;99961.94;5099733;27;20023;-75
2023/03/06 06:40:38;;;;;;;24.77;13.02;;;;;;;2.39;100.00;99976.13;5137767;27;20042;-75
2023/03/06 06:43:04;;;;;;;29.58;14.95;;;;;;;2.38;100.00;99966.25;5110447;27;20076;-75
2023/03/06 06:45:29;;;;;;;26.23;14.20;;;;;;;2.37;100.00;99972.81;5101532;27;20058;-75
2023/03/06 06:47:55;;;;;;;28.20;14.45;;;;;;;2.37;100.00;99972.81;5082067;28;20027;-75
2023/03/06 06:50:20;;;;;;;25.48;14.02;;;;;;;2.37;100.00;99964.59;5084936;27;20023;-75
2023/03/06 06:52:46;;;;;;;26.25;14.40;;;;;;;2.38;100.00;99970.91;5112509;28;20640;-75
2023/03/06 06:55:11;;;;;;;26.10;14.23;;;;;;;2.37;100.00;99975.56;5101273;27;20031;-75
2023/03/06 06:57:37;;;;;;;26.42;13.98;;;;;;;2.36;100.00;99979.38;5127218;27;20111;-75
2023/03/06 07:00:03;;;;;;;25.23;13.10;;;;;;;2.35;100.00;99966.75;5079065;28;20036;-75
2023/03/06 07:02:30;;;;;;;30.92;14.07;;;;;;;2.33;100.00;99962.59;5076488;27;20064;-75
2023/03/06 07:04:56;;;;;;;27.42;14.40;;;;;;;2.33;100.00;99965.34;5119067;27;20027;-75
2023/03/06 07:07:22;;;;;;;26.73;14.50;;;;;;;2.35;100.00;99961.28;5118437;27;20087;-75
2023/03/06 07:09:47;;;;;;;27.20;14.10;;;;;;;2.36;100.00;99970.31;5098513;28;20491;-75
2023/03/06 07:12:13;;;;;;;26.15;13.85;;;;;;;2.36;100.00;99964.84;5117640;27;20031;-75
2023/03/06 07:14:40;;;;;;;27.58;13.35;;;;;;;2.37;100.00;99967.34;5124950;27;20092;-75
2023/03/06 07:17:05;;;;;;;26.48;13.15;;;;;;;2.36;100.00;99968.41;5098546;28;20032;-75
2023/03/06 07:19:31;;;;;;;22.10;12.38;;;;;;;2.35;100.00;99971.41;5096818;28;20031;-75
2023/03/06 07:21:58;;;;;;;26.10;13.88;;;;;;;2.38;100.00;99965.41;5088984;28;20035;-75
2023/03/06 07:24:24;;;;;;;23.92;12.88;;;;;;;2.36;100.00;99965.66;5117279;27;20044;-75
2023/03/06 07:26:50;;;;;;;28.40;13.73;;;;;;;2.38;100.00;99966.25;5118464;27;20027;-75
2023/03/06 07:29:15;;;;;;;25.35;13.05;;;;;;;2.39;100.00;99972.56;5136768;27;20030;-75
2023/03/06 07:31:41;;;;;;;24.52;12.18;;;;;;;2.41;100.00;99976.69;5090965;28;20050;-75
2023/03/06 07:34:06;;;;;;;23.27;12.98;;;;;;;2.38;100.00;99968.97;5061208;28;20032;-75
2023/03/06 07:36:32;;;;;;;23.55;13.07;;;;;;;2.44;100.00;99976.19;5108983;27;20031;-75
2023/03/06 07:38:58;;;;;;;27.42;13.65;;;;;;;2.42;100.00;99978.38;5101377;27;20031;-75
2023/03/06 07:41:23;;;;;;;21.92;12.20;;;;;;;2.43;100.00;99980.03;5123501;27;20019;-75
2023/03/06 07:43:49;;;;;;;26.08;12.70;;;;;;;2.44;100.00;99980.84;5121358;27;20031;-75
2023/03/06 07:46:14;;;;;;;26.20;12.38;;;;;;;2.46;100.00;99985.00;5117568;27;20047;-75
2023/03/06 07:48:40;;;;;;;23.55;12.88;;;;;;;2.48;100.00;99984.75;5101003;27;20030;-75
2023/03/06 07:51:16;;;;;;;25.20;12.90;;;;;;;2.50;100.00;99989.97;5084171;27;20038;-75
2023/03/06 07:53:42;;;;;;;22.17;11.75;;;;;;;2.54;100.00;99991.13;5068355;27;20074;-75
2023/03/06 07:56:07;;;;;;;24.85;13.10;;;;;;;2.55;100.00;100004.56;5097590;28;20024;-75
2023/03/06 07:58:37;;;;;;;26.00;13.70;;;;;;;2.59;100.00;100004.88;5095464;28;20067;-75
2023/03/06 08:01:10;;;;;;;25.23;13.68;;;;;;;2.63;100.00;100006.06;5128089;27;20539;-75
2023/03/06 08:03:36;;;;;;;25.30;13.57;;;;;;;2.65;100.00;100010.19;5136256;27;20031;-75
2023/03/06 08:06:15;;;;;;;27.55;13.85;;;;;;;2.69;100.00;100010.50;5097287;28;20042;-75
2023/03/06 08:08:41;;;;;;;29.15;14.30;;;;;;;2.72;100.00;100010.00;5089767;28;20020;-75
2023/03/06 08:11:07;;;;;;;28.08;15.02;;;;;;;2.77;100.00;100022.97;5083579;28;20026;-75
2023/03/06 08:13:33;;;;;;;27.05;14.77;;;;;;;2.79;100.00;100027.09;5086069;28;20036;-75
2023/03/06 08:15:59;;;;;;;28.65;14.45;;;;;;;2.82;100.00;100023.03;5094800;28;20035;-75
2023/03/06 08:18:25;;;;;;;31.65;15.73;;;;;;;2.85;100.00;100030.75;5097213;28;20040;-75
2023/03/06 08:21:19;;;;;;;35.88;16.95;;;;;;;2.87;100.00;100034.03;5083703;28;20076;-75
2023/03/06 08:23:45;;;;;;;30.92;16.08;;;;;;;2.91;100.00;100029.72;5102907;28;20042;-75
2023/03/06 08:26:27;;;;;;;32.25;16.02;;;;;;;2.93;100.00;100026.75;5099947;28;20027;-75
2023/03/06 08:28:53;;;;;;;30.67;15.68;;;;;;;2.94;100.00;100029.22;5110996;28;20051;-75
2023/03/06 08:31:30;;;;;;;30.38;16.55;;;;;;;2.97;100.00;100027.88;5064691;28;20089;-75
2023/03/06 08:33:57;;;;;;;27.17;14.82;;;;;;;2.97;100.00;100028.69;5062813;28;20515;-76
2023/03/06 08:36:23;;;;;;;27.48;15.48;;;;;;;2.97;100.00;100025.94;5117475;28;20030;-75
2023/03/06 08:38:48;;;;;;;30.73;15.23;;;;;;;3.00;100.00;100027.34;5117395;28;20035;-75
2023/03/06 08:41:14;;;;;;;30.20;14.18;;;;;;;3.01;100.00;100010.66;5104553;27;20046;-75
2023/03/06 08:43:39;;;;;;;28.17;14.48;;;;;;;3.03;100.00;100021.34;5121566;28;20023;-76
2023/03/06 08:46:05;;;;;;;29.80;14.57;;;;;;;3.06;100.00;100016.19;5069423;28;20047;-76
2023/03/06 08:48:30;;;;;;;26.40;13.63;;;;;;;3.05;100.00;100019.19;5076072;28;20024;-75
2023/03/06 08:50:56;;;;;;;28.67;15.38;;;;;;;3.06;100.00;100021.66;5096733;28;20035;-75
2023/03/06 08:53:21;;;;;;;29.95;15.65;;;;;;;3.09;100.00;100025.81;5096548;28;20392;-75
2023/03/06 08:55:47;;;;;;;25.08;13.98;;;;;;;3.10;100.00;100019.25;5080375;28;20093;-76
2023/03/06 08:58:12;;;;;;;29.35;14.73;;;;;;;3.12;100.00;100015.16;5079836;28;20028;-76
2023/03/06 09:00:38;;;;;;;30.35;16.05;;;;;;;3.13;100.00;100024.22;5049151;28;20039;-75
2023/03/06 09:03:04;;;;;;;30.70;15.68;;;;;;;3.18;100.00;100026.22;5043980;28;20034;-76
2023/03/06 09:05:30;;;;;;;28.70;14.15;;;;;;;3.21;100.00;100015.53;5059670;28;20060;-75
2023/03/06 09:07:55;;;;;;;26.35;14.43;;;;;;;3.23;100.00;100021.59;5076021;28;20491;-75
2023/03/06 09:10:22;;;;;;;27.30;14.52;;;;;;;3.30;100.00;100021.41;5063065;28;20023;-75
2023/03/06 09:12:47;;;;;;;26.00;13.60;;;;;;;3.33;100.00;100018.94;5066991;28;20059;-75
2023/03/06 09:15:13;;;;;;;25.65;13.52;;;;;;;3.39;100.00;100021.75;5079841;28;20062;-75
2023/03/06 09:17:39;;;;;;;27.60;13.15;;;;;;;3.42;100.00;100021.25;5114900;28;20036;-76
2023/03/06 09:20:05;;;;;;;27.02;13.98;;;;;;;3.48;100.00;100011.97;5083568;28;20202;-76
2023/03/06 09:22:31;;;;;;;25.40;12.77;;;;;;;3.54;100.00;100010.94;5118434;28;20035;-76
2023/03/06 09:24:57;;;;;;;23.95;12.98;;;;;;;3.61;100.00;100008.81;5080266;28;20422;-76
2023/03/06 09:27:22;;;;;;;26.08;13.40;;;;;;;3.67;100.00;100016.00;5080040;28;20038;-76
2023/03/06 09:29:48;;;;;;;22.48;12.77;;;;;;;3.71;100.00;100011.66;5066654;28;20028;-76
2023/03/06 09:32:14;;;;;;;22.30;13.73;;;;;;;3.78;100.00;100017.75;5086618;28;20067;-75
2023/03/06 09:34:39;;;;;;;23.98;12.93;;;;;;;3.83;100.00;100008.72;5070645;28;20028;-76
2023/03/06 09:37:04;;;;;;;22.98;12.20;;;;;;;3.88;100.00;100010.69;5086552;28;20030;-75
2023/03/06 09:39:30;;;;;;;25.48;12.90;;;;;;;3.96;100.00;100018.47;5083387;28;20030;-76
2023/03/06 09:41:58;;;;;;;22.77;12.35;;;;;;;4.01;100.00;100015.72;5120341;28;20027;-75
2023/03/06 09:44:28;;;;;;;21.90;12.23;;;;;;;4.08;100.00;100008.09;5099995;28;20043;-75
2023/03/06 09:47:31;;;;;;;25.33;13.40;;;;;;;4.17;100.00;100013.94;5100363;28;20051;-75
2023/03/06 09:50:25;;;;;;;21.67;12.07;;;;;;;4.18;100.00;100010.06;5122328;28;20039;-75
2023/03/06 09:52:56;;;;;;;25.50;13.10;;;;;;;4.28;100.00;100014.84;5086797;28;20031;-76
2023/03/06 09:55:26;;;;;;;26.33;13.65;;;;;;;4.34;100.00;100016.53;5122140;28;20035;-75
2023/03/06 09:57:54;;;;;;;26.67;13.23;;;;;;;4.39;100.00;100019.31;5074922;28;20268;-76
2023/03/06 10:00:35;;;;;;;22.85;12.48;;;;;;;4.43;100.00;100017.66;5066481;28;20065;-76
2023/03/06 10:03:24;;;;;;;28.95;14.60;;;;;;;4.47;100.00;100025.13;5078331;28;20035;-76
2023/03/06 10:05:54;;;;;;;23.15;12.80;;;;;;;4.50;100.00;100021.03;5099502;28;20057;-76
2023/03/06 10:08:42;;;;;;;24.75;14.07;;;;;;;4.55;100.00;100031.25;5066330;28;20114;-76
2023/03/06 10:11:09;;;;;;;22.70;12.00;;;;;;;4.58;100.00;100020.53;5064978;28;20047;-78
2023/03/06 10:13:36;;;;;;;25.08;13.55;;;;;;;4.62;100.00;100021.63;5072720;28;20050;-76
2023/03/06 10:16:31;;;;;;;20.67;12.68;;;;;;;4.67;100.00;100021.66;5062035;28;20028;-76
2023/03/06 10:19:02;;;;;;;26.08;13.55;;;;;;;4.72;100.00;100018.13;5058807;28;20028;-76
2023/03/06 10:21:59;;;;;;;23.13;13.43;;;;;;;4.79;100.00;100015.13;5099409;28;20027;-76
2023/03/06 10:24:53;;;;;;;22.92;13.52;;;;;;;4.83;100.00;100021.75;5065419;28;20020;-76
2023/03/06 10:27:47;;;;;;;26.65;14.52;;;;;;;4.87;100.00;100018.19;5062112;28;20034;-76
2023/03/06 10:30:32;;;;;;;24.83;14.52;;;;;;;4.92;100.00;100029.22;5075279;28;20498;-76
2023/03/06 10:33:07;;;;;;;25.20;14.60;;;;;;;4.97;100.00;100017.41;5070727;28;20102;-76
2023/03/06 10:35:47;;;;;;;25.75;13.77;;;;;;;4.98;100.00;100016.31;5082041;28;20491;-76
2023/03/06 10:38:31;;;;;;;29.73;15.65;;;;;;;5.03;100.00;100010.81;5064273;28;20543;-76
2023/03/06 10:41:05;;;;;;;25.08;13.98;;;;;;;5.06;100.00;100010.28;5068708;28;20038;-76
2023/03/06 10:43:31;;;;;;;24.65;13.30;;;;;;;5.11;100.00;100006.72;5114469;28;20041;-76
2023/03/06 10:45:57;;;;;;;23.42;13.90;;;;;;;5.17;100.00;100010.34;5080898;28;20736;-76
2023/03/06 10:48:24;;;;;;;27.33;14.27;;;;;;;5.23;100.00;100009.25;5065304;28;20491;-76
2023/03/06 10:50:49;;;;;;;27.77;15.45;;;;;;;5.29;100.00;100003.50;5087320;27;20042;-76
2023/03/06 10:53:22;;;;;;;33.65;15.63;;;;;;;5.34;100.00;100006.25;5122086;27;20107;-76
2023/03/06 10:55:52;;;;;;;;;;;;;;;5.44;100.00;100012.88;5067468;28;20127;-76
2023/03/06 10:58:23;;;;;;;29.42;16.35;;;;;;;5.51;100.00;100010.69;5081043;28;19908;-76
2023/03/06 11:01:05;;;;;;;35.30;17.85;;;;;;;5.56;100.00;100014.28;5116522;28;20644;-77
2023/03/06 11:03:31;;;;;;;32.15;17.25;;;;;;;5.60;100.00;100009.88;5116664;28;20020;-76
2023/03/06 11:06:07;;;;;;;35.97;18.52;;;;;;;5.65;100.00;100008.22;5077068;28;20032;-76
2023/03/06 11:08:34;;;;;;;34.47;17.58;;;;;;;5.68;100.00;100007.69;5089236;27;20023;-76
2023/03/06 11:11:02;;;;;;;32.05;17.27;;;;;;;5.71;100.00;100012.63;5061450;28;20396;-76
2023/03/06 11:13:30;;;;;;;39.83;19.20;;;;;;;5.74;100.00;100004.66;5049526;28;20058;-76